createdAt,value
2023-02-27T00:02:10.306Z,8.50
2023-02-27T00:04:39.921Z,9.93
2023-02-27T00:07:10.351Z,10.20
2023-02-27T00:09:41.718Z,9.15
2023-02-27T00:12:11.755Z,11.85
2023-02-27T00:14:41.450Z,10.43
2023-02-27T00:17:11.048Z,10.50
2023-02-27T00:19:40.731Z,10.98
2023-02-27T00:22:10.364Z,10.98
2023-02-27T00:24:40.038Z,10.65
2023-02-27T00:27:09.761Z,11.73
2023-02-27T00:29:39.359Z,14.30
2023-02-27T00:32:09.169Z,13.18
2023-02-27T00:34:38.818Z,11.60
2023-02-27T00:37:08.565Z,12.57
2023-02-27T00:39:38.219Z,11.35
2023-02-27T00:42:07.851Z,8.48
2023-02-27T00:44:37.539Z,13.63
2023-02-27T00:47:07.247Z,9.90
2023-02-27T00:49:36.927Z,11.25
2023-02-27T00:52:06.972Z,10.38
2023-02-27T00:54:36.633Z,9.85
2023-02-27T00:57:06.338Z,10.63
2023-02-27T00:59:35.965Z,8.88
2023-02-27T01:02:05.521Z,9.07
2023-02-27T01:04:35.264Z,9.57
2023-02-27T01:07:05.533Z,9.05
2023-02-27T01:09:35.142Z,8.50
2023-02-27T01:12:04.843Z,8.00
2023-02-27T01:14:34.430Z,8.38
2023-02-27T01:17:04.157Z,7.85
2023-02-27T01:19:34.013Z,7.47
2023-02-27T01:22:03.681Z,8.32
2023-02-27T01:24:33.420Z,8.40
2023-02-27T01:27:03.132Z,8.02
2023-02-27T01:29:32.913Z,8.75
2023-02-27T01:32:02.615Z,7.78
2023-02-27T01:34:34.160Z,9.68
2023-02-27T01:37:04.398Z,8.45
2023-02-27T01:39:34.624Z,6.82
2023-02-27T01:42:04.538Z,7.57
2023-02-27T01:44:36.341Z,7.40
2023-02-27T01:47:06.696Z,7.15
2023-02-27T01:49:36.448Z,7.03
2023-02-27T01:52:11.043Z,7.55
2023-02-27T01:54:43.297Z,7.78
2023-02-27T01:57:13.005Z,9.05
2023-02-27T01:59:43.347Z,7.43
2023-02-27T02:02:20.095Z,7.95
2023-02-27T02:04:49.995Z,6.93
2023-02-27T02:07:21.041Z,8.30
2023-02-27T02:09:58.438Z,7.30
2023-02-27T02:12:33.838Z,7.50
2023-02-27T02:15:03.428Z,8.93
2023-02-27T02:17:32.998Z,7.78
2023-02-27T02:20:10.345Z,5.88
2023-02-27T02:22:58.208Z,7.50
2023-02-27T02:25:39.758Z,6.72
2023-02-27T02:28:35.109Z,8.52
2023-02-27T02:31:26.500Z,7.50
2023-02-27T02:34:22.492Z,6.18
2023-02-27T02:37:06.313Z,7.13
2023-02-27T02:40:00.578Z,7.30
2023-02-27T02:42:40.282Z,6.50
2023-02-27T02:45:17.740Z,11.90
2023-02-27T02:48:05.952Z,6.88
2023-02-27T02:50:47.278Z,7.45
2023-02-27T02:53:36.055Z,6.80
2023-02-27T02:56:31.695Z,6.57
2023-02-27T02:59:13.441Z,7.32
2023-02-27T03:01:47.501Z,5.50
2023-02-27T03:07:15.464Z,7.15
2023-02-27T03:10:11.442Z,6.53
2023-02-27T03:12:43.811Z,5.75
2023-02-27T03:15:25.409Z,8.50
2023-02-27T03:18:07.020Z,7.25
2023-02-27T03:20:44.852Z,13.10
2023-02-27T03:23:22.477Z,9.63
2023-02-27T03:25:52.426Z,20.75
2023-02-27T03:28:23.846Z,11.02
2023-02-27T03:31:03.317Z,8.63
2023-02-27T03:33:49.079Z,8.35
2023-02-27T03:36:29.143Z,11.05
2023-02-27T03:39:26.560Z,10.48
2023-02-27T03:42:24.141Z,9.20
2023-02-27T03:45:03.158Z,7.05
2023-02-27T03:47:32.756Z,11.82
2023-02-27T03:50:02.435Z,18.90
2023-02-27T03:52:32.296Z,12.40
2023-02-27T03:55:18.579Z,17.10
2023-02-27T03:57:48.678Z,11.90
2023-02-27T04:00:20.892Z,19.38
2023-02-27T04:02:52.767Z,12.57
2023-02-27T04:05:22.610Z,13.57
2023-02-27T04:08:22.834Z,20.67
2023-02-27T04:11:17.326Z,21.45
2023-02-27T04:14:19.222Z,21.67
2023-02-27T04:16:48.994Z,17.85
2023-02-27T04:19:48.436Z,24.95
2023-02-27T04:22:38.939Z,23.90
2023-02-27T04:25:22.413Z,18.25
2023-02-27T04:28:20.959Z,16.70
2023-02-27T04:31:00.082Z,18.48
2023-02-27T04:33:45.044Z,17.58
2023-02-27T04:36:51.111Z,21.35
2023-02-27T04:40:06.994Z,25.70
2023-02-27T04:42:39.821Z,19.02
2023-02-27T04:45:12.301Z,16.45
2023-02-27T04:48:05.653Z,27.37
2023-02-27T04:50:42.014Z,22.58
2023-02-27T04:53:23.059Z,19.67
2023-02-27T04:55:54.995Z,25.60
2023-02-27T04:58:36.947Z,13.90
2023-02-27T05:01:12.301Z,12.27
2023-02-27T05:03:44.862Z,9.25
2023-02-27T05:06:14.483Z,12.13
2023-02-27T05:08:59.214Z,17.88
2023-02-27T05:11:30.781Z,18.55
2023-02-27T05:14:06.599Z,19.17
2023-02-27T05:16:46.951Z,17.85
2023-02-27T05:19:16.892Z,22.05
2023-02-27T05:22:28.657Z,19.50
2023-02-27T05:25:03.909Z,19.02
2023-02-27T05:27:36.207Z,11.18
2023-02-27T05:30:19.747Z,24.60
2023-02-27T05:32:55.909Z,18.65
2023-02-27T05:35:45.313Z,25.33
2023-02-27T05:38:23.466Z,32.70
2023-02-27T05:40:59.177Z,18.00
2023-02-27T05:43:58.768Z,20.10
2023-02-27T05:46:34.060Z,25.63
2023-02-27T05:49:08.201Z,22.70
2023-02-27T05:54:18.341Z,16.25
2023-02-27T05:56:48.159Z,20.83
2023-02-27T05:59:40.798Z,18.60
2023-02-27T06:02:10.464Z,37.92
2023-02-27T06:04:40.232Z,31.88
2023-02-27T06:07:09.860Z,21.52
2023-02-27T06:09:39.844Z,23.50
2023-02-27T06:12:09.493Z,17.48
2023-02-27T06:14:39.185Z,41.45
2023-02-27T06:17:08.792Z,58.72
2023-02-27T06:19:38.418Z,50.97
2023-02-27T06:22:08.076Z,29.08
2023-02-27T06:24:37.797Z,23.88
2023-02-27T06:27:07.431Z,20.80
2023-02-27T06:29:37.245Z,19.88
2023-02-27T06:32:07.123Z,12.73
2023-02-27T06:34:36.755Z,16.08
2023-02-27T06:37:06.319Z,18.00
2023-02-27T06:39:35.985Z,13.75
2023-02-27T06:42:05.886Z,16.35
2023-02-27T06:44:35.509Z,13.30
2023-02-27T06:47:05.112Z,9.05
2023-02-27T06:49:34.845Z,9.85
2023-02-27T06:52:04.488Z,11.88
2023-02-27T06:54:34.097Z,9.75
2023-02-27T06:57:03.776Z,6.90
2023-02-27T06:59:33.390Z,7.68
2023-02-27T07:02:03.004Z,8.90
2023-02-27T07:04:32.649Z,6.03
2023-02-27T07:07:36.130Z,8.32
2023-02-27T07:09:51.880Z,6.70
2023-02-27T07:12:21.426Z,8.55
2023-02-27T07:14:51.024Z,9.18
2023-02-27T07:17:20.561Z,7.53
2023-02-27T07:19:50.147Z,6.20
2023-02-27T07:22:19.810Z,7.18
2023-02-27T07:24:49.406Z,8.05
2023-02-27T07:27:18.958Z,6.53
2023-02-27T07:29:48.540Z,5.57
2023-02-27T07:32:18.381Z,8.43
2023-02-27T07:34:48.204Z,7.70
2023-02-27T07:37:17.772Z,5.93
2023-02-27T07:39:47.386Z,5.65
2023-02-27T07:42:16.927Z,7.82
2023-02-27T07:44:46.537Z,5.72
2023-02-27T07:47:16.182Z,10.88
2023-02-27T07:49:46.046Z,7.35
2023-02-27T07:52:15.740Z,7.78
2023-02-27T07:54:45.388Z,7.05
2023-02-27T07:57:15.402Z,7.05
2023-02-27T07:59:45.106Z,6.05
2023-02-27T08:02:14.724Z,8.10
2023-02-27T08:04:44.362Z,6.45
2023-02-27T08:07:13.996Z,7.75
2023-02-27T08:09:43.522Z,8.10
2023-02-27T08:12:13.455Z,7.00
2023-02-27T08:14:43.012Z,8.50
2023-02-27T08:17:12.582Z,9.80
2023-02-27T08:19:42.627Z,10.65
2023-02-27T08:22:13.494Z,10.82
2023-02-27T08:24:43.195Z,7.78
2023-02-27T08:27:12.761Z,8.35
2023-02-27T08:29:42.771Z,6.05
2023-02-27T08:32:12.450Z,8.68
2023-02-27T08:34:42.106Z,12.02
2023-02-27T08:37:29.570Z,7.82
2023-02-27T08:39:59.260Z,7.93
2023-02-27T08:42:28.938Z,10.63
2023-02-27T08:44:58.546Z,8.38
2023-02-27T08:47:28.253Z,7.72
2023-02-27T08:49:58.282Z,9.50
2023-02-27T08:52:27.900Z,8.45
2023-02-27T08:54:57.484Z,8.35
2023-02-27T08:57:27.112Z,9.35
2023-02-27T08:59:56.694Z,10.40
2023-02-27T09:02:27.823Z,10.50
2023-02-27T09:04:57.924Z,8.90
2023-02-27T09:07:27.576Z,7.60
2023-02-27T09:09:57.198Z,9.05
2023-02-27T09:12:26.792Z,9.63
2023-02-27T09:14:56.421Z,10.38
2023-02-27T09:17:25.985Z,9.00
2023-02-27T09:19:57.297Z,9.60
2023-02-27T09:22:27.263Z,8.63
2023-02-27T09:24:57.531Z,7.38
2023-02-27T09:27:27.615Z,7.60
2023-02-27T09:29:57.929Z,7.72
2023-02-27T09:32:28.022Z,6.40
2023-02-27T09:34:57.689Z,8.52
2023-02-27T09:37:27.484Z,9.10
2023-02-27T09:39:57.739Z,9.73
2023-02-27T09:42:29.311Z,7.90
2023-02-27T09:44:59.827Z,8.35
2023-02-27T09:47:32.909Z,9.02
2023-02-27T09:50:08.858Z,7.88
2023-02-27T09:52:39.212Z,7.30
2023-02-27T09:55:14.411Z,9.18
2023-02-27T09:57:49.414Z,9.27
2023-02-27T10:00:46.567Z,7.65
2023-02-27T10:03:39.334Z,6.03
2023-02-27T10:06:21.253Z,9.75
2023-02-27T10:08:50.780Z,8.48
2023-02-27T10:11:25.940Z,9.75
2023-02-27T10:14:16.749Z,12.02
2023-02-27T10:16:46.511Z,7.93
2023-02-27T10:19:22.020Z,11.07
2023-02-27T10:21:52.448Z,9.30
2023-02-27T10:24:29.851Z,9.98
2023-02-27T10:27:00.885Z,9.88
2023-02-27T10:29:31.778Z,9.10
2023-02-27T10:32:13.822Z,7.05
2023-02-27T10:34:44.462Z,9.02
2023-02-27T10:37:16.735Z,9.85
2023-02-27T10:40:06.493Z,11.05
2023-02-27T10:42:41.576Z,12.07
2023-02-27T10:45:20.224Z,8.10
2023-02-27T10:47:49.815Z,8.07
2023-02-27T10:50:33.402Z,10.35
2023-02-27T10:53:04.586Z,10.77
2023-02-27T10:55:39.873Z,12.55
2023-02-27T10:58:09.577Z,9.95
2023-02-27T11:00:55.663Z,10.68
2023-02-27T11:03:34.780Z,9.68
2023-02-27T11:06:07.098Z,7.45
2023-02-27T11:08:37.048Z,10.55
2023-02-27T11:11:06.898Z,9.57
2023-02-27T11:13:41.270Z,9.52
2023-02-27T11:16:15.199Z,13.98
2023-02-27T11:18:49.405Z,9.23
2023-02-27T11:21:24.697Z,10.80
2023-02-27T11:24:04.831Z,10.23
2023-02-27T11:26:39.652Z,15.23
2023-02-27T11:29:16.647Z,11.65
2023-02-27T11:32:01.445Z,11.60
2023-02-27T11:34:39.819Z,13.25
2023-02-27T11:37:20.770Z,12.48
2023-02-27T11:40:03.375Z,9.93
2023-02-27T11:42:34.532Z,12.93
2023-02-27T11:46:05.217Z,12.93
2023-02-27T11:48:30.933Z,15.35
2023-02-27T11:51:12.667Z,14.30
2023-02-27T11:54:01.190Z,13.77
2023-02-27T11:56:47.291Z,16.27
2023-02-27T11:59:25.252Z,15.68
2023-02-27T12:02:02.303Z,13.27
2023-02-27T12:05:01.726Z,14.27
2023-02-27T12:07:40.948Z,13.85
2023-02-27T12:10:59.331Z,12.32
2023-02-27T12:13:40.528Z,13.38
2023-02-27T12:16:23.337Z,16.48
2023-02-27T12:19:01.558Z,11.60
2023-02-27T12:21:36.393Z,12.45
2023-02-27T12:24:28.088Z,15.98
2023-02-27T12:27:30.129Z,19.83
2023-02-27T12:30:20.187Z,14.23
2023-02-27T12:33:11.981Z,17.20
2023-02-27T12:35:41.580Z,13.70
2023-02-27T12:38:12.375Z,14.07
2023-02-27T12:40:53.892Z,12.75
2023-02-27T12:43:40.106Z,16.27
2023-02-27T12:46:27.764Z,17.58
2023-02-27T12:49:06.345Z,17.75
2023-02-27T12:51:53.837Z,14.80
2023-02-27T12:54:46.580Z,15.52
2023-02-27T12:57:20.769Z,15.90
2023-02-27T13:00:12.740Z,16.27
2023-02-27T13:02:42.458Z,14.88
2023-02-27T13:05:33.876Z,14.75
2023-02-27T13:08:16.574Z,16.42
2023-02-27T13:11:04.537Z,13.75
2023-02-27T13:13:58.893Z,15.05
2023-02-27T13:16:58.177Z,15.63
2023-02-27T13:19:36.796Z,16.50
2023-02-27T13:22:12.223Z,16.42
2023-02-27T13:24:48.313Z,15.75
2023-02-27T13:27:38.383Z,17.77
2023-02-27T13:30:15.778Z,19.30
2023-02-27T13:32:45.441Z,16.27
2023-02-27T13:35:19.753Z,16.88
2023-02-27T13:40:36.636Z,15.95
2023-02-27T13:43:27.085Z,16.95
2023-02-27T13:46:01.272Z,16.95
2023-02-27T13:51:06.199Z,14.95
2023-02-27T13:53:35.832Z,16.55
2023-02-27T13:56:24.828Z,16.10
2023-02-27T13:58:55.633Z,20.10
2023-02-27T14:01:29.823Z,16.67
2023-02-27T14:04:01.936Z,15.68
2023-02-27T14:06:31.733Z,18.20
2023-02-27T14:09:14.478Z,16.17
2023-02-27T14:11:52.016Z,19.48
2023-02-27T14:14:42.930Z,16.13
2023-02-27T14:17:17.167Z,22.00
2023-02-27T14:22:19.857Z,17.92
2023-02-27T14:25:07.981Z,19.67
2023-02-27T14:27:46.770Z,19.83
2023-02-27T14:30:37.746Z,19.30
2023-02-27T14:33:30.008Z,17.77
2023-02-27T14:36:10.177Z,18.67
2023-02-27T14:38:40.105Z,19.98
2023-02-27T14:41:16.372Z,21.30
2023-02-27T14:43:47.464Z,18.80
2023-02-27T14:46:30.339Z,19.63
2023-02-27T14:49:04.971Z,21.42
2023-02-27T14:51:38.217Z,22.70
2023-02-27T14:54:22.251Z,17.33
2023-02-27T14:57:01.497Z,25.13
2023-02-27T14:59:32.009Z,17.15
2023-02-27T15:02:05.732Z,21.52
2023-02-27T15:04:35.550Z,23.05
2023-02-27T15:07:05.707Z,18.88
2023-02-27T15:09:38.336Z,22.38
2023-02-27T15:12:08.161Z,20.63
2023-02-27T15:14:41.476Z,20.17
2023-02-27T15:17:22.039Z,22.50
2023-02-27T15:19:56.372Z,19.98
2023-02-27T15:22:39.085Z,20.13
2023-02-27T15:25:09.740Z,20.85
2023-02-27T15:27:39.359Z,23.13
2023-02-27T15:30:09.856Z,23.10
2023-02-27T15:32:42.903Z,22.20
2023-02-27T15:35:19.744Z,21.83
2023-02-27T15:37:58.042Z,20.45
2023-02-27T15:40:29.407Z,22.63
2023-02-27T15:42:59.338Z,20.50
2023-02-27T15:45:32.023Z,20.35
2023-02-27T15:48:01.580Z,18.88
2023-02-27T15:50:44.357Z,20.15
2023-02-27T15:53:18.698Z,19.48
2023-02-27T15:56:11.010Z,20.67
2023-02-27T15:58:46.984Z,20.98
2023-02-27T16:01:21.275Z,20.23
2023-02-27T16:06:40.984Z,20.98
2023-02-27T16:09:22.238Z,20.73
2023-02-27T16:11:52.101Z,18.70
2023-02-27T16:14:46.261Z,19.67
2023-02-27T16:17:34.662Z,26.35
2023-02-27T16:20:23.126Z,25.00
2023-02-27T16:23:16.048Z,18.90
2023-02-27T16:25:56.244Z,18.20
2023-02-27T16:28:25.766Z,20.33
2023-02-27T16:30:55.956Z,20.35
2023-02-27T16:33:25.686Z,19.42
2023-02-27T16:36:04.672Z,22.85
2023-02-27T16:38:34.392Z,20.67
2023-02-27T16:41:04.045Z,20.52
2023-02-27T16:43:33.818Z,20.35
2023-02-27T16:46:03.557Z,18.50
2023-02-27T16:48:33.254Z,22.67
2023-02-27T16:51:02.830Z,18.95
2023-02-27T16:53:32.392Z,23.52
2023-02-27T16:56:03.699Z,17.58
2023-02-27T16:58:33.527Z,20.88
2023-02-27T17:01:03.116Z,18.67
2023-02-27T17:03:32.909Z,19.52
2023-02-27T17:06:04.898Z,17.80
2023-02-27T17:08:34.526Z,18.10
2023-02-27T17:11:05.609Z,21.00
2023-02-27T17:13:36.473Z,18.88
2023-02-27T17:16:06.723Z,19.05
2023-02-27T17:18:36.348Z,20.85
2023-02-27T17:21:06.301Z,22.65
2023-02-27T17:23:36.803Z,20.63
2023-02-27T17:26:07.122Z,18.73
2023-02-27T17:28:36.747Z,22.33
2023-02-27T17:31:24.371Z,19.90
2023-02-27T17:33:55.284Z,20.83
2023-02-27T17:36:25.065Z,21.70
2023-02-27T17:39:03.311Z,19.70
2023-02-27T17:41:33.348Z,17.77
2023-02-27T17:44:03.310Z,17.40
2023-02-27T17:46:33.256Z,19.30
2023-02-27T17:49:03.349Z,18.63
2023-02-27T17:51:33.239Z,18.95
2023-02-27T17:54:06.936Z,20.23
2023-02-27T17:56:37.015Z,18.77
2023-02-27T17:59:07.358Z,21.75
2023-02-27T18:01:38.239Z,16.83
2023-02-27T18:04:09.468Z,19.63
2023-02-27T18:06:39.446Z,17.10
2023-02-27T18:09:09.216Z,18.30
2023-02-27T18:11:41.948Z,23.30
2023-02-27T18:14:11.520Z,17.77
2023-02-27T18:16:41.187Z,18.60
2023-02-27T18:19:10.888Z,15.90
2023-02-27T18:21:40.622Z,18.73
2023-02-27T18:24:10.876Z,17.30
2023-02-27T18:26:40.532Z,20.70
2023-02-27T18:29:11.214Z,19.33
2023-02-27T18:31:43.014Z,21.15
2023-02-27T18:34:12.860Z,19.05
2023-02-27T18:36:42.455Z,20.60
2023-02-27T18:39:12.080Z,19.30
2023-02-27T18:41:41.651Z,18.63
2023-02-27T18:44:12.170Z,21.80
2023-02-27T18:46:41.900Z,22.92
2023-02-27T18:49:11.644Z,21.38
2023-02-27T18:51:41.236Z,22.13
2023-02-27T18:54:13.554Z,18.40
2023-02-27T18:56:43.452Z,18.88
2023-02-27T18:59:13.573Z,19.45
2023-02-27T19:01:43.118Z,17.77
2023-02-27T19:04:12.774Z,22.85
2023-02-27T19:06:43.661Z,18.55
2023-02-27T19:09:15.002Z,20.58
2023-02-27T19:11:44.853Z,18.83
2023-02-27T19:14:15.205Z,20.73
2023-02-27T19:16:45.746Z,17.58
2023-02-27T19:19:15.328Z,19.33
2023-02-27T19:21:45.183Z,18.65
2023-02-27T19:24:15.017Z,19.48
2023-02-27T19:26:44.663Z,21.10
2023-02-27T19:29:14.291Z,16.98
2023-02-27T19:31:44.305Z,19.45
2023-02-27T19:34:14.505Z,17.25
2023-02-27T19:36:44.169Z,20.13
2023-02-27T19:39:13.827Z,22.48
2023-02-27T19:41:43.692Z,16.73
2023-02-27T19:44:13.743Z,19.70
2023-02-27T19:46:44.994Z,21.70
2023-02-27T19:49:14.573Z,23.08
2023-02-27T19:51:44.372Z,20.45
2023-02-27T19:54:15.426Z,20.25
2023-02-27T19:56:45.144Z,19.15
2023-02-27T19:59:17.534Z,17.70
2023-02-27T20:01:47.135Z,19.38
2023-02-27T20:04:19.128Z,20.92
2023-02-27T20:06:51.050Z,18.58
2023-02-27T20:09:21.906Z,20.45
2023-02-27T20:11:54.039Z,20.75
2023-02-27T20:14:23.820Z,15.63
2023-02-27T20:16:54.485Z,18.15
2023-02-27T20:19:25.018Z,18.45
2023-02-27T20:21:55.785Z,16.40
2023-02-27T20:24:26.084Z,17.35
2023-02-27T20:26:55.891Z,15.85
2023-02-27T20:29:26.395Z,12.77
2023-02-27T20:31:57.182Z,16.23
2023-02-27T20:34:27.882Z,14.73
2023-02-27T20:36:57.698Z,14.60
2023-02-27T20:39:27.553Z,12.80
2023-02-27T20:41:57.217Z,12.52
2023-02-27T20:44:26.886Z,15.57
2023-02-27T20:46:56.873Z,16.85
2023-02-27T20:49:27.513Z,13.48
2023-02-27T20:51:57.228Z,12.93
2023-02-27T20:54:26.869Z,14.93
2023-02-27T20:56:56.528Z,15.35
2023-02-27T20:59:27.043Z,13.80
2023-02-27T21:01:56.769Z,14.43
2023-02-27T21:04:48.577Z,11.57
2023-02-27T21:07:20.182Z,10.38
2023-02-27T21:09:49.917Z,10.27
2023-02-27T21:12:19.769Z,11.57
2023-02-27T21:14:50.817Z,10.95
2023-02-27T21:17:20.408Z,11.25
2023-02-27T21:19:50.040Z,9.93
2023-02-27T21:22:19.732Z,8.88
2023-02-27T21:24:51.654Z,8.50
2023-02-27T21:27:22.934Z,7.80
2023-02-27T21:29:52.628Z,10.82
2023-02-27T21:32:22.217Z,9.30
2023-02-27T21:34:51.964Z,8.52
2023-02-27T21:37:21.574Z,10.13
2023-02-27T21:39:55.598Z,10.20
2023-02-27T21:42:25.678Z,10.75
2023-02-27T21:44:55.236Z,8.10
2023-02-27T21:47:24.822Z,8.38
2023-02-27T21:49:54.524Z,7.88
2023-02-27T21:52:24.156Z,8.98
2023-02-27T21:54:55.641Z,7.88
2023-02-27T21:57:25.323Z,7.03
2023-02-27T21:59:55.093Z,8.02
2023-02-27T22:02:24.711Z,8.95
2023-02-27T22:04:54.323Z,9.45
2023-02-27T22:07:23.931Z,8.85
2023-02-27T22:09:53.582Z,9.45
2023-02-27T22:12:23.775Z,9.57
2023-02-27T22:14:53.377Z,8.45
2023-02-27T22:17:23.004Z,9.15
2023-02-27T22:19:52.785Z,9.60
2023-02-27T22:22:22.434Z,8.05
2023-02-27T22:24:52.022Z,8.10
2023-02-27T22:27:21.651Z,7.53
2023-02-27T22:29:51.244Z,7.93
2023-02-27T22:32:21.176Z,9.73
2023-02-27T22:34:51.355Z,7.72
2023-02-27T22:37:21.398Z,7.95
2023-02-27T22:39:51.067Z,8.00
2023-02-27T22:42:20.709Z,8.00
2023-02-27T22:44:50.281Z,8.38
2023-02-27T22:47:19.856Z,7.30
2023-02-27T22:49:52.009Z,7.22
2023-02-27T22:52:21.772Z,9.43
2023-02-27T22:54:51.733Z,8.55
2023-02-27T22:57:21.645Z,9.30
2023-02-27T22:59:54.295Z,8.13
2023-02-27T23:02:23.891Z,9.15
2023-02-27T23:04:53.498Z,8.90
2023-02-27T23:07:23.105Z,11.35
2023-02-27T23:09:52.775Z,9.90
2023-02-27T23:12:22.348Z,8.45
2023-02-27T23:14:52.070Z,10.43
2023-02-27T23:17:21.703Z,14.70
2023-02-27T23:19:51.420Z,9.30
2023-02-27T23:22:21.094Z,8.90
2023-02-27T23:24:50.695Z,9.80
2023-02-27T23:27:26.132Z,10.07
2023-02-27T23:29:56.671Z,9.90
2023-02-27T23:32:26.278Z,7.82
2023-02-27T23:34:55.871Z,9.90
2023-02-27T23:37:25.555Z,8.85
2023-02-27T23:39:55.154Z,9.02
2023-02-27T23:42:24.770Z,11.18
2023-02-27T23:45:09.354Z,8.73
2023-02-27T23:47:53.353Z,9.25
2023-02-27T23:50:27.224Z,8.48
2023-02-27T23:52:57.718Z,12.52
2023-02-27T23:55:28.100Z,11.93
2023-02-27T23:57:58.723Z,8.60
